createdAt,value
2018-09-08T00:00:55.170Z,36.20
2018-09-08T00:02:26.588Z,37.00
2018-09-08T00:03:58.168Z,36.10
2018-09-08T00:05:29.733Z,37.40
2018-09-08T00:07:01.447Z,36.50
2018-09-08T00:08:32.866Z,36.10
2018-09-08T00:10:04.437Z,36.30
2018-09-08T00:11:36.007Z,37.30
2018-09-08T00:13:07.778Z,37.90
2018-09-08T00:14:39.146Z,37.90
2018-09-08T00:16:10.724Z,36.70
2018-09-08T00:17:42.286Z,36.50
2018-09-08T00:19:13.956Z,35.10
2018-09-08T00:20:45.426Z,36.50
2018-09-08T00:22:16.996Z,34.70
2018-09-08T00:23:48.565Z,36.80
2018-09-08T00:25:20.235Z,36.90
2018-09-08T00:26:52.020Z,35.60
2018-09-08T00:28:23.276Z,35.50
2018-09-08T00:29:54.844Z,34.90
2018-09-08T00:31:26.816Z,36.50
2018-09-08T00:32:57.988Z,38.90
2018-09-08T00:34:29.556Z,40.50
2018-09-08T00:36:01.124Z,40.20
2018-09-08T00:37:32.845Z,43.60
2018-09-08T00:39:04.263Z,39.50
2018-09-08T00:40:35.833Z,41.80
2018-09-08T00:42:07.404Z,41.40
2018-09-08T00:43:39.073Z,40.60
2018-09-08T00:45:10.543Z,41.20
2018-09-08T00:46:42.112Z,44.60
2018-09-08T00:48:13.683Z,43.10
2018-09-08T00:49:45.451Z,40.20
2018-09-08T00:51:16.822Z,40.00
2018-09-08T00:52:48.393Z,41.10
2018-09-08T00:54:19.960Z,40.90
2018-09-08T00:55:51.630Z,45.10
2018-09-08T00:57:23.180Z,45.20
2018-09-08T00:58:54.674Z,42.60
2018-09-08T01:00:26.239Z,42.20
2018-09-08T01:01:58.077Z,43.40
2018-09-08T01:03:29.378Z,45.00
2018-09-08T01:05:00.948Z,43.90
2018-09-08T01:06:32.517Z,44.40
2018-09-08T01:08:04.287Z,45.90
2018-09-08T01:09:35.656Z,45.10
2018-09-08T01:11:07.229Z,45.70
2018-09-08T01:12:38.795Z,46.90
2018-09-08T01:14:10.464Z,47.60
2018-09-08T01:15:41.936Z,45.60
2018-09-08T01:17:13.503Z,46.40
2018-09-08T01:18:45.073Z,46.20
2018-09-08T01:20:16.742Z,45.20
2018-09-08T01:21:48.211Z,45.50
2018-09-08T01:23:19.781Z,42.20
2018-09-08T01:24:51.350Z,43.40
2018-09-08T01:26:23.120Z,41.20
2018-09-08T01:27:54.489Z,41.40
2018-09-08T01:29:26.059Z,40.50
2018-09-08T01:30:57.631Z,41.50
2018-09-08T01:32:29.447Z,38.80
2018-09-08T01:34:00.766Z,42.30
2018-09-08T01:35:32.336Z,42.30
2018-09-08T01:37:03.905Z,44.00
2018-09-08T01:38:35.574Z,43.30
2018-09-08T01:40:07.044Z,43.00
2018-09-08T01:41:38.612Z,41.80
2018-09-08T01:43:10.182Z,42.10
2018-09-08T01:44:41.951Z,41.30
2018-09-08T01:46:13.320Z,42.70
2018-09-08T01:47:44.889Z,43.10
2018-09-08T01:49:16.458Z,45.20
2018-09-08T01:50:48.128Z,45.30
2018-09-08T01:52:19.597Z,44.70
2018-09-08T01:53:51.166Z,45.50
2018-09-08T01:55:22.736Z,46.70
2018-09-08T01:56:54.404Z,47.00
2018-09-08T01:58:25.874Z,47.80
2018-09-08T01:59:57.443Z,46.30
2018-09-08T02:01:29.019Z,46.90
2018-09-08T02:03:00.932Z,47.50
2018-09-08T02:04:32.150Z,47.00
2018-09-08T02:06:03.719Z,46.50
2018-09-08T02:07:35.560Z,45.60
2018-09-08T02:09:07.865Z,45.80
2018-09-08T02:10:38.426Z,46.70
2018-09-08T02:12:09.994Z,45.70
2018-09-08T02:13:41.563Z,46.80
2018-09-08T02:15:13.236Z,48.10
2018-09-08T02:16:44.702Z,48.70
2018-09-08T02:18:16.271Z,45.80
2018-09-08T02:19:47.839Z,48.30
2018-09-08T02:21:19.609Z,51.00
2018-09-08T02:24:22.549Z,51.10
2018-09-08T02:25:54.116Z,52.30
2018-09-08T02:27:25.835Z,53.70
2018-09-08T02:28:57.260Z,56.50
2018-09-08T02:30:28.822Z,59.10
2018-09-08T02:32:00.391Z,53.90
2018-09-08T02:33:32.109Z,55.40
2018-09-08T02:35:03.528Z,55.00
2018-09-08T02:36:35.098Z,52.40
2018-09-08T02:38:06.920Z,51.30
2018-09-08T02:39:38.635Z,50.90
2018-09-08T02:41:09.810Z,50.90
2018-09-08T02:42:41.371Z,51.10
2018-09-08T02:44:12.946Z,54.60
2018-09-08T02:45:44.679Z,55.20
2018-09-08T02:47:16.078Z,56.00
2018-09-08T02:48:47.646Z,55.80
2018-09-08T02:50:19.215Z,54.60
2018-09-08T02:51:50.887Z,55.20
2018-09-08T02:53:22.354Z,54.00
2018-09-08T02:54:53.920Z,55.30
2018-09-08T02:56:25.489Z,50.10
2018-09-08T02:57:57.307Z,51.50
2018-09-08T02:59:28.626Z,67.90
2018-09-08T03:01:00.195Z,61.90
2018-09-08T03:02:31.765Z,56.50
2018-09-08T03:05:35.000Z,56.00
2018-09-08T03:07:06.468Z,55.00
2018-09-08T03:08:38.038Z,52.80
2018-09-08T03:10:09.605Z,53.00
2018-09-08T03:11:41.479Z,55.40
2018-09-08T03:13:12.742Z,53.90
2018-09-08T03:14:44.311Z,54.40
2018-09-08T03:16:15.879Z,53.40
2018-09-08T03:17:47.649Z,57.90
2018-09-08T03:19:19.016Z,53.10
2018-09-08T03:20:50.887Z,54.10
2018-09-08T03:22:22.152Z,54.50
2018-09-08T03:23:53.821Z,58.20
2018-09-08T03:25:25.289Z,56.80
2018-09-08T03:26:56.860Z,59.30
2018-09-08T03:28:28.427Z,53.10
2018-09-08T03:30:00.096Z,53.20
2018-09-08T03:31:31.564Z,53.20
2018-09-08T03:33:03.132Z,53.20
2018-09-08T03:34:34.700Z,53.50
2018-09-08T03:36:06.775Z,53.90
2018-09-08T03:37:37.836Z,57.40
2018-09-08T03:39:09.405Z,56.60
2018-09-08T03:40:40.974Z,57.20
2018-09-08T03:42:12.642Z,56.80
2018-09-08T03:43:44.110Z,53.70
2018-09-08T03:45:15.679Z,56.50
2018-09-08T03:46:47.248Z,55.80
2018-09-08T03:48:18.915Z,57.50
2018-09-08T03:49:50.382Z,56.80
2018-09-08T03:51:21.950Z,57.50
2018-09-08T03:52:53.824Z,59.60
2018-09-08T03:54:25.396Z,59.90
2018-09-08T03:55:56.656Z,58.70
2018-09-08T03:57:28.224Z,62.40
2018-09-08T03:58:59.823Z,69.80
2018-09-08T04:00:31.461Z,73.00
2018-09-08T04:02:02.929Z,71.80
2018-09-08T04:03:34.497Z,69.10
2018-09-08T04:05:06.066Z,67.30
2018-09-08T04:06:37.885Z,71.40
2018-09-08T04:08:09.202Z,68.40
2018-09-08T04:09:40.771Z,65.70
2018-09-08T04:11:12.344Z,66.10
2018-09-08T04:12:44.107Z,74.40
2018-09-08T04:14:15.474Z,69.40
2018-09-08T04:15:47.044Z,63.30
2018-09-08T04:17:18.614Z,66.70
2018-09-08T04:18:50.280Z,74.30
2018-09-08T04:20:21.751Z,65.90
2018-09-08T04:21:53.320Z,66.70
2018-09-08T04:23:24.894Z,65.20
2018-09-08T04:24:56.553Z,70.20
2018-09-08T04:26:28.020Z,72.70
2018-09-08T04:27:59.589Z,74.70
2018-09-08T04:29:31.210Z,77.60
2018-09-08T04:31:03.025Z,83.20
2018-09-08T04:32:34.293Z,80.10
2018-09-08T04:34:05.861Z,68.80
2018-09-08T04:35:37.429Z,69.20
2018-09-08T04:37:09.248Z,69.40
2018-09-08T04:38:40.567Z,72.30
2018-09-08T04:40:12.133Z,68.70
2018-09-08T04:41:43.702Z,69.40
2018-09-08T04:43:15.371Z,71.30
2018-09-08T04:44:46.838Z,78.50
2018-09-08T04:46:18.405Z,81.90
2018-09-08T04:47:49.974Z,74.60
2018-09-08T04:49:21.752Z,75.30
2018-09-08T04:52:24.678Z,90.70
2018-09-08T04:53:56.246Z,93.20
2018-09-08T04:55:27.814Z,76.80
2018-09-08T04:56:59.384Z,69.60
2018-09-08T04:58:30.950Z,68.50
2018-09-08T05:00:02.520Z,71.70
2018-09-08T05:01:34.186Z,69.10
2018-09-08T05:03:05.654Z,70.80
2018-09-08T05:04:37.222Z,71.70
2018-09-08T05:06:08.791Z,72.40
2018-09-08T05:07:40.861Z,75.50
2018-09-08T05:09:11.982Z,72.40
2018-09-08T05:10:43.494Z,71.50
2018-09-08T05:12:15.062Z,73.50
2018-09-08T05:13:46.930Z,75.60
2018-09-08T05:15:18.197Z,78.30
2018-09-08T05:16:49.768Z,74.10
2018-09-08T05:18:21.334Z,80.20
2018-09-08T05:19:52.901Z,85.60
2018-09-08T05:21:24.469Z,78.50
2018-09-08T05:22:56.036Z,72.40
2018-09-08T05:24:27.604Z,77.20
2018-09-08T05:25:59.272Z,84.10
2018-09-08T05:27:30.740Z,86.90
2018-09-08T05:29:02.308Z,81.40
2018-09-08T05:30:33.877Z,93.50
2018-09-08T05:32:05.545Z,104.60
2018-09-08T05:33:37.011Z,109.60
2018-09-08T05:35:08.662Z,110.50
2018-09-08T05:36:40.161Z,94.20
2018-09-08T05:38:11.865Z,76.80
2018-09-08T05:39:43.284Z,75.30
2018-09-08T05:41:14.851Z,69.40
2018-09-08T05:42:46.470Z,73.50
2018-09-08T05:44:18.388Z,73.40
2018-09-08T05:45:49.557Z,85.70
2018-09-08T05:47:21.124Z,77.20
2018-09-08T05:50:24.560Z,88.20
2018-09-08T05:51:55.827Z,82.10
2018-09-08T05:53:27.395Z,74.60
2018-09-08T05:54:58.962Z,74.90
2018-09-08T05:56:30.582Z,73.80
2018-09-08T05:58:02.099Z,71.80
2018-09-08T05:59:33.667Z,69.70
2018-09-08T06:01:05.773Z,68.20
2018-09-08T06:02:37.103Z,67.70
2018-09-08T06:04:08.371Z,65.40
2018-09-08T06:05:39.940Z,64.90
2018-09-08T06:07:11.509Z,62.40
2018-09-08T06:08:43.075Z,62.30
2018-09-08T06:10:14.732Z,62.80
2018-09-08T06:11:46.211Z,60.80
2018-09-08T06:13:17.778Z,61.50
2018-09-08T06:14:49.346Z,60.20
2018-09-08T06:16:20.914Z,59.00
2018-09-08T06:17:52.482Z,59.80
2018-09-08T06:19:24.050Z,58.60
2018-09-08T06:20:55.718Z,58.60
2018-09-08T06:22:27.186Z,57.60
2018-09-08T06:23:58.755Z,55.90
2018-09-08T06:25:30.351Z,55.80
2018-09-08T06:27:01.891Z,56.50
2018-09-08T06:28:33.523Z,55.60
2018-09-08T06:30:05.027Z,58.60
2018-09-08T06:31:36.594Z,55.90
2018-09-08T06:33:08.263Z,56.20
2018-09-08T06:34:39.734Z,56.70
2018-09-08T06:36:11.300Z,58.30
2018-09-08T06:37:42.869Z,57.50
2018-09-08T06:39:14.736Z,57.20
2018-09-08T06:40:46.005Z,60.40
2018-09-08T06:42:17.572Z,58.80
2018-09-08T06:43:49.143Z,56.00
2018-09-08T06:45:20.708Z,58.20
2018-09-08T06:48:23.845Z,56.70
2018-09-08T06:49:55.416Z,58.70
2018-09-08T06:51:26.982Z,62.70
2018-09-08T06:52:58.550Z,63.00
2018-09-08T06:54:30.119Z,59.90
2018-09-08T06:56:01.687Z,62.20
2018-09-08T06:57:33.355Z,63.80
2018-09-08T06:59:04.824Z,72.10
2018-09-08T07:00:36.392Z,68.70
2018-09-08T07:02:07.961Z,67.90
2018-09-08T07:03:39.780Z,66.90
2018-09-08T07:05:11.098Z,66.40
2018-09-08T07:06:42.667Z,71.20
2018-09-08T07:08:14.234Z,66.80
2018-09-08T07:09:45.803Z,68.10
2018-09-08T07:11:17.372Z,72.60
2018-09-08T07:12:48.940Z,72.10
2018-09-08T07:14:20.508Z,70.60
2018-09-08T07:15:52.277Z,76.90
2018-09-08T07:17:23.645Z,72.70
2018-09-08T07:20:26.783Z,77.10
2018-09-08T07:21:58.351Z,80.50
2018-09-08T07:23:29.920Z,77.90
2018-09-08T07:25:01.592Z,81.20
2018-09-08T07:26:33.057Z,78.40
2018-09-08T07:28:04.725Z,82.00
2018-09-08T07:29:36.193Z,78.50
2018-09-08T07:31:07.815Z,80.30
2018-09-08T07:32:39.331Z,79.00
2018-09-08T07:34:11.101Z,78.90
2018-09-08T07:35:42.674Z,76.60
2018-09-08T07:37:14.072Z,72.70
2018-09-08T07:38:45.608Z,72.50
2018-09-08T07:40:17.475Z,70.30
2018-09-08T07:41:48.742Z,72.50
2018-09-08T07:43:20.310Z,69.50
2018-09-08T07:44:51.879Z,63.50
2018-09-08T07:46:23.548Z,59.70
2018-09-08T07:47:55.019Z,57.80
2018-09-08T07:49:26.585Z,60.70
2018-09-08T07:50:58.157Z,61.50
2018-09-08T07:52:30.123Z,58.70
2018-09-08T07:54:01.323Z,58.50
2018-09-08T07:55:32.859Z,53.80
2018-09-08T07:57:04.427Z,53.50
2018-09-08T07:58:36.096Z,54.00
2018-09-08T08:00:07.565Z,51.50
2018-09-08T08:01:39.136Z,52.90
2018-09-08T08:03:10.702Z,51.10
2018-09-08T08:04:42.370Z,49.00
2018-09-08T08:06:13.838Z,50.60
2018-09-08T08:07:45.413Z,47.50
2018-09-08T08:09:16.978Z,49.20
2018-09-08T08:10:48.994Z,47.80
2018-09-08T08:12:20.111Z,47.20
2018-09-08T08:13:51.680Z,46.70
2018-09-08T08:15:23.248Z,46.60
2018-09-08T08:16:54.917Z,44.80
2018-09-08T08:18:26.388Z,45.10
2018-09-08T08:19:57.953Z,45.00
2018-09-08T08:21:29.521Z,46.00
2018-09-08T08:23:01.240Z,43.10
2018-09-08T08:24:32.658Z,41.40
2018-09-08T08:26:04.226Z,43.30
2018-09-08T08:27:35.796Z,41.90
2018-09-08T08:29:07.463Z,42.30
2018-09-08T08:30:38.931Z,41.00
2018-09-08T08:32:10.500Z,41.60
2018-09-08T08:33:42.068Z,41.60
2018-09-08T08:35:13.737Z,42.70
2018-09-08T08:36:45.205Z,41.20
2018-09-08T08:38:16.821Z,40.40
2018-09-08T08:39:48.342Z,40.70
2018-09-08T08:41:20.012Z,40.30
2018-09-08T08:42:51.479Z,39.40
2018-09-08T08:44:23.048Z,40.60
2018-09-08T08:45:54.620Z,40.60
2018-09-08T08:47:26.285Z,39.60
2018-09-08T08:48:57.755Z,41.90
2018-09-08T08:50:29.323Z,40.00
2018-09-08T08:52:00.891Z,40.90
2018-09-08T08:53:32.458Z,40.30
2018-09-08T08:55:04.027Z,39.60
2018-09-08T08:56:35.596Z,39.70
2018-09-08T08:58:07.169Z,40.00
2018-09-08T08:59:38.734Z,44.70
2018-09-08T09:01:10.302Z,41.20
2018-09-08T09:02:41.871Z,41.60
2018-09-08T09:04:13.439Z,41.80
2018-09-08T09:05:45.208Z,43.70
2018-09-08T09:07:16.958Z,43.30
2018-09-08T09:08:48.498Z,44.40
2018-09-08T09:10:19.713Z,45.20
2018-09-08T09:11:51.957Z,46.90
2018-09-08T09:13:22.924Z,42.80
2018-09-08T09:14:54.420Z,46.70
2018-09-08T09:16:25.988Z,46.40
2018-09-08T09:17:57.657Z,46.70
2018-09-08T09:19:29.126Z,47.10
2018-09-08T09:21:00.694Z,47.20
2018-09-08T09:22:32.263Z,45.70
2018-09-08T09:24:04.016Z,44.90
2018-09-08T09:25:35.704Z,44.10
2018-09-08T09:27:06.969Z,45.60
2018-09-08T09:28:38.539Z,47.30
2018-09-08T09:30:10.207Z,48.90
2018-09-08T09:34:44.813Z,46.10
2018-09-08T09:36:16.384Z,43.70
2018-09-08T09:37:47.951Z,46.40
2018-09-08T09:39:19.723Z,47.30
2018-09-08T09:42:22.859Z,44.80
2018-09-08T09:43:54.434Z,47.70
2018-09-08T09:45:25.797Z,48.60
2018-09-08T09:46:57.371Z,50.50
2018-09-08T09:48:29.542Z,49.10
2018-09-08T09:50:00.505Z,47.50
2018-09-08T09:51:32.619Z,48.10
2018-09-08T09:54:35.213Z,48.30
2018-09-08T09:57:38.352Z,47.20
2018-09-08T09:59:09.922Z,50.10
2018-09-08T10:02:13.216Z,46.00
2018-09-08T10:03:44.631Z,44.90
2018-09-08T10:05:16.202Z,43.60
2018-09-08T10:08:19.445Z,39.20
2018-09-08T10:09:51.420Z,38.30
2018-09-08T10:11:22.485Z,38.80
2018-09-08T10:12:54.055Z,37.30
2018-09-08T10:14:25.728Z,37.50
2018-09-08T10:15:57.198Z,35.30
2018-09-08T10:17:28.770Z,36.70
2018-09-08T10:19:00.343Z,35.90
2018-09-08T10:20:32.216Z,33.60
2018-09-08T10:22:03.486Z,34.20
2018-09-08T10:23:35.132Z,34.90
2018-09-08T10:25:06.832Z,32.50
2018-09-08T10:26:38.406Z,31.20
2018-09-08T10:28:09.775Z,30.60
2018-09-08T10:31:12.922Z,29.90
2018-09-08T10:32:44.496Z,29.20
2018-09-08T10:34:16.070Z,29.70
2018-09-08T10:37:19.222Z,29.70
2018-09-08T10:38:51.498Z,29.50
2018-09-08T10:40:22.405Z,29.10
2018-09-08T10:41:54.249Z,28.30
2018-09-08T10:43:25.521Z,28.90
2018-09-08T10:46:29.310Z,30.50
2018-09-08T10:48:00.246Z,27.60
2018-09-08T10:52:35.715Z,32.20
2018-09-08T10:54:06.548Z,29.70
2018-09-08T10:55:38.119Z,30.30
2018-09-08T10:57:09.693Z,29.40
2018-09-08T10:58:42.055Z,31.40
2018-09-08T11:00:12.842Z,32.70
2018-09-08T11:03:15.988Z,30.90
2018-09-08T11:09:22.917Z,31.20
2018-09-08T11:10:53.852Z,30.40
2018-09-08T11:13:57.202Z,31.90
2018-09-08T11:15:28.826Z,31.50
2018-09-08T11:20:03.490Z,32.10
2018-09-08T11:21:35.013Z,31.60
2018-09-08T11:23:06.434Z,30.00
2018-09-08T11:26:09.883Z,32.60
2018-09-08T11:27:41.959Z,31.30
2018-09-08T11:30:44.649Z,30.90
2018-09-08T11:32:15.870Z,29.60
2018-09-08T11:33:47.543Z,30.20
2018-09-08T11:36:50.600Z,29.20
2018-09-08T11:38:22.415Z,31.40
2018-09-08T11:41:27.668Z,29.20
2018-09-08T11:42:56.883Z,27.80
2018-09-08T11:44:28.459Z,29.30
2018-09-08T11:46:00.031Z,27.80
2018-09-08T11:49:03.581Z,27.40
2018-09-08T11:50:35.294Z,29.00
2018-09-08T11:52:06.329Z,30.20
2018-09-08T11:53:38.107Z,30.60
2018-09-08T11:55:09.479Z,31.10
2018-09-08T11:56:41.663Z,30.10
2018-09-08T11:58:12.830Z,34.10
2018-09-08T11:59:44.751Z,31.70
2018-09-08T12:01:15.779Z,33.80
2018-09-08T12:02:47.357Z,32.40
2018-09-08T12:04:18.928Z,31.70
2018-09-08T12:05:50.503Z,33.10
2018-09-08T12:07:22.179Z,31.60
2018-09-08T12:08:54.193Z,33.50
2018-09-08T12:10:25.435Z,32.10
2018-09-08T12:11:56.808Z,33.80
2018-09-08T12:13:28.925Z,33.00
2018-09-08T12:16:31.743Z,33.40
2018-09-08T12:18:03.117Z,30.40
2018-09-08T12:21:06.376Z,25.80
2018-09-08T12:22:37.853Z,25.50
2018-09-08T12:24:09.433Z,22.90
2018-09-08T12:25:41.752Z,24.50
2018-09-08T12:27:12.793Z,24.20
2018-09-08T12:31:47.542Z,24.40
2018-09-08T12:33:19.519Z,24.60
2018-09-08T12:34:50.494Z,24.20
2018-09-08T12:36:22.277Z,22.90
2018-09-08T12:37:54.162Z,23.60
2018-09-08T12:39:25.262Z,24.00
2018-09-08T12:40:57.020Z,23.60
2018-09-08T12:42:28.936Z,24.30
2018-09-08T12:44:00.180Z,21.50
2018-09-08T12:45:32.299Z,17.80
2018-09-08T12:47:03.140Z,19.40
2018-09-08T12:50:06.302Z,19.30
2018-09-08T12:51:38.924Z,18.10
2018-09-08T12:53:09.768Z,19.70
2018-09-08T12:56:12.636Z,18.50
2018-09-08T12:57:44.308Z,17.20
2018-09-08T12:59:16.140Z,15.80
2018-09-08T13:02:18.958Z,16.70
2018-09-08T13:03:51.040Z,16.50
2018-09-08T13:05:22.318Z,16.20
2018-09-08T13:06:53.903Z,16.80
2018-09-08T13:08:25.820Z,17.30
2018-09-08T13:09:57.166Z,15.30
2018-09-08T13:13:00.563Z,15.50
2018-09-08T13:14:31.608Z,17.10
2018-09-08T13:16:03.595Z,18.00
2018-09-08T13:19:06.557Z,16.20
2018-09-08T13:22:09.918Z,16.80
2018-09-08T13:23:41.405Z,15.80
2018-09-08T13:25:12.886Z,16.20
2018-09-08T13:26:44.266Z,16.90
2018-09-08T13:28:15.948Z,17.20
2018-09-08T13:29:48.039Z,17.70
2018-09-08T13:32:50.899Z,16.30
2018-09-08T13:35:53.862Z,16.80
2018-09-08T13:37:25.367Z,17.20
2018-09-08T13:38:56.928Z,16.40
2018-09-08T13:40:28.510Z,17.60
2018-09-08T13:42:00.343Z,16.80
2018-09-08T13:43:31.675Z,17.60
2018-09-08T13:46:34.843Z,17.10
2018-09-08T13:48:06.524Z,17.40
2018-09-08T13:49:38.012Z,17.30
2018-09-08T13:51:09.592Z,16.70
2018-09-08T13:55:44.343Z,16.30
2018-09-08T13:57:15.925Z,15.80
2018-09-08T13:58:47.509Z,17.90
2018-09-08T14:00:19.397Z,17.50
2018-09-08T14:01:50.830Z,18.00
2018-09-08T14:03:22.564Z,17.60
2018-09-08T14:04:54.046Z,17.60
2018-09-08T14:06:25.427Z,18.90
2018-09-08T14:07:57.161Z,19.50
2018-09-08T14:09:28.608Z,18.30
2018-09-08T14:11:00.178Z,19.70
2018-09-08T14:12:31.762Z,18.00
2018-09-08T14:14:03.445Z,18.10
2018-09-08T14:15:34.940Z,19.40
2018-09-08T14:17:06.514Z,19.00
2018-09-08T14:20:09.880Z,18.80
2018-09-08T14:21:41.465Z,19.00
2018-09-08T14:23:12.847Z,19.10
2018-09-08T14:24:45.373Z,19.40
2018-09-08T14:29:19.484Z,18.80
2018-09-08T14:30:50.764Z,17.40
2018-09-08T14:32:22.353Z,17.20
2018-09-08T14:35:25.719Z,17.60
2018-09-08T14:36:57.105Z,17.80
2018-09-08T14:38:28.886Z,18.60
2018-09-08T14:40:00.267Z,19.10
2018-09-08T14:41:31.954Z,18.30
2018-09-08T14:43:03.640Z,18.10
2018-09-08T14:47:38.395Z,16.80
2018-09-08T14:49:09.772Z,17.80
2018-09-08T14:50:41.362Z,18.20
2018-09-08T14:53:45.128Z,18.60
2018-09-08T14:55:16.111Z,17.50
2018-09-08T14:58:19.280Z,19.20
2018-09-08T14:59:51.166Z,20.00
2018-09-08T15:01:22.993Z,18.80
2018-09-08T15:04:25.621Z,19.20
2018-09-08T15:05:57.306Z,18.00
2018-09-08T15:07:28.792Z,18.80
2018-09-08T15:09:00.381Z,17.70
2018-09-08T15:10:31.964Z,15.60
2018-09-08T15:12:03.801Z,15.80
2018-09-08T15:16:38.611Z,16.80
2018-09-08T15:21:13.502Z,17.60
2018-09-08T15:22:45.199Z,16.60
2018-09-08T15:24:16.238Z,16.20
2018-09-08T15:25:47.823Z,17.90
2018-09-08T15:27:19.659Z,19.50
2018-09-08T15:28:51.298Z,19.10
2018-09-08T15:30:22.580Z,17.40
2018-09-08T15:31:54.166Z,16.50
2018-09-08T15:33:25.911Z,17.80
2018-09-08T15:34:57.374Z,18.60
2018-09-08T15:36:28.927Z,18.00
2018-09-08T15:38:00.513Z,18.50
2018-09-08T15:39:32.200Z,18.60
2018-09-08T15:41:03.685Z,16.80
2018-09-08T15:42:35.271Z,15.50
2018-09-08T15:44:06.858Z,15.50
2018-09-08T15:47:10.231Z,14.80
2018-09-08T15:48:41.617Z,14.30
2018-09-08T15:50:13.203Z,13.90
2018-09-08T15:54:48.602Z,14.10
2018-09-08T15:57:51.141Z,15.00
2018-09-08T16:00:54.917Z,13.30
2018-09-08T16:02:25.899Z,13.80
2018-09-08T16:05:29.073Z,13.00
2018-09-08T16:08:32.756Z,12.00
2018-09-08T16:10:03.835Z,11.90
2018-09-08T16:13:07.313Z,12.30
2018-09-08T16:14:38.699Z,12.00
2018-09-08T16:16:10.187Z,11.80
2018-09-08T16:17:42.282Z,12.00
2018-09-08T16:19:13.363Z,12.40
2018-09-08T16:20:45.994Z,10.50
2018-09-08T16:22:16.541Z,11.10
2018-09-08T16:23:48.129Z,10.80
2018-09-08T16:25:19.718Z,12.20
2018-09-08T16:29:55.187Z,16.20
2018-09-08T16:40:35.999Z,20.30
2018-09-08T16:43:38.770Z,19.90
2018-09-08T16:45:10.358Z,18.50
2018-09-08T16:46:42.146Z,19.80
2018-09-08T16:48:13.532Z,18.70
2018-09-08T16:52:48.394Z,20.20
2018-09-08T16:54:20.418Z,19.10
2018-09-08T16:55:51.467Z,19.70
2018-09-08T16:57:23.057Z,19.00
2018-09-08T16:58:54.741Z,18.90
2018-09-08T17:00:26.239Z,20.60
2018-09-08T17:03:29.404Z,18.30
2018-09-08T17:05:01.211Z,19.50
2018-09-08T17:06:32.573Z,18.90
2018-09-08T17:08:04.363Z,18.70
2018-09-08T17:11:07.736Z,18.20
2018-09-08T17:14:10.504Z,17.70
2018-09-08T17:15:42.293Z,18.50
2018-09-08T17:17:14.316Z,18.20
2018-09-08T17:21:48.434Z,17.80
2018-09-08T17:23:20.218Z,17.40
2018-09-08T17:24:52.210Z,16.80
2018-09-08T17:27:54.774Z,17.90
2018-09-08T17:29:26.460Z,16.40
2018-09-08T17:30:57.945Z,17.50
2018-09-08T17:32:29.529Z,18.10
2018-09-08T17:35:33.001Z,17.00
2018-09-08T17:37:04.285Z,18.20
2018-09-08T17:38:36.173Z,17.10
2018-09-08T17:40:07.458Z,17.80
2018-09-08T17:41:39.241Z,18.10
2018-09-08T17:43:10.623Z,18.00
2018-09-08T17:44:42.412Z,18.30
2018-09-08T17:46:14.095Z,18.30
2018-09-08T17:47:46.014Z,18.20
2018-09-08T17:49:16.961Z,19.40
2018-09-08T17:50:48.850Z,18.30
2018-09-08T17:52:20.131Z,18.40
2018-09-08T17:53:52.757Z,19.10
2018-09-08T17:55:23.836Z,18.60
2018-09-08T17:56:54.882Z,19.10
2018-09-08T17:58:26.497Z,18.40
2018-09-08T18:01:29.985Z,19.00
2018-09-08T18:03:01.219Z,18.50
2018-09-08T18:06:04.385Z,19.40
2018-09-08T18:07:36.474Z,19.30
2018-09-08T18:09:07.553Z,19.30
2018-09-08T18:12:10.723Z,18.90
2018-09-08T18:13:42.420Z,18.90
2018-09-08T18:15:14.089Z,19.00
2018-09-08T18:16:45.676Z,18.20
2018-09-08T18:18:17.053Z,19.70
2018-09-08T18:19:48.837Z,17.80
2018-09-08T18:22:51.802Z,19.40
2018-09-08T18:24:23.385Z,19.60
2018-09-08T18:27:26.952Z,19.10
2018-09-08T18:28:58.138Z,20.30
2018-09-08T18:30:29.918Z,19.00
2018-09-08T18:32:01.500Z,19.10
2018-09-08T18:33:32.980Z,18.60
2018-09-08T18:35:04.766Z,17.40
2018-09-08T18:38:07.627Z,16.50
2018-09-08T18:39:39.409Z,16.70
2018-09-08T18:44:13.958Z,16.10
2018-09-08T18:45:45.639Z,18.10
2018-09-08T18:48:48.701Z,17.60
2018-09-08T18:50:20.286Z,17.20
2018-09-08T18:51:52.502Z,17.70
2018-09-08T18:53:23.751Z,17.70
2018-09-08T18:54:55.229Z,16.20
2018-09-08T18:56:26.608Z,16.00
2018-09-08T19:01:01.753Z,17.90
2018-09-08T19:02:32.932Z,16.70
2018-09-08T19:04:04.515Z,16.80
2018-09-08T19:05:36.093Z,17.00
2018-09-08T19:07:07.973Z,17.90
2018-09-08T19:08:39.557Z,16.60
2018-09-08T19:10:10.833Z,16.50
2018-09-08T19:11:42.412Z,17.10
2018-09-08T19:13:14.292Z,16.20
2018-09-08T19:16:17.155Z,17.60
2018-09-08T19:19:20.510Z,18.60
2018-09-08T19:20:51.889Z,17.80
2018-09-08T19:22:23.469Z,17.50
2018-09-08T19:23:55.048Z,17.60
2018-09-08T19:25:26.931Z,17.30
2018-09-08T19:26:58.746Z,17.90
2018-09-08T19:30:01.368Z,17.40
2018-09-08T19:33:04.824Z,19.20
2018-09-08T19:34:36.100Z,19.60
2018-09-08T19:36:07.982Z,20.40
2018-09-08T19:37:39.256Z,21.40
2018-09-08T19:40:43.016Z,20.00
2018-09-08T19:42:13.990Z,20.40
2018-09-08T19:43:45.771Z,21.70
2018-09-08T19:45:17.149Z,21.40
2018-09-08T19:46:49.364Z,22.40
2018-09-08T19:48:20.300Z,22.70
2018-09-08T19:49:51.876Z,23.40
2018-09-08T19:51:23.453Z,22.00
2018-09-08T19:52:55.433Z,22.50
2018-09-08T19:54:26.603Z,23.60
2018-09-08T19:55:58.382Z,23.30
2018-09-08T19:57:29.754Z,22.50
2018-09-08T20:00:33.262Z,24.90
2018-09-08T20:02:05.030Z,25.20
2018-09-08T20:03:36.255Z,24.90
2018-09-08T20:05:07.631Z,26.20
2018-09-08T20:08:11.416Z,26.60
2018-09-08T20:09:42.382Z,25.20
2018-09-08T20:11:13.925Z,25.40
2018-09-08T20:14:17.371Z,25.80
2018-09-08T20:15:48.642Z,25.20
2018-09-08T20:17:20.215Z,26.50
2018-09-08T20:18:51.789Z,24.70
2018-09-08T20:20:23.563Z,24.30
2018-09-08T20:21:54.936Z,22.60
2018-09-08T20:23:27.048Z,24.30
2018-09-08T20:26:29.790Z,24.00
2018-09-08T20:28:01.227Z,25.30
2018-09-08T20:31:04.373Z,26.40
2018-09-08T20:32:36.045Z,25.60
2018-09-08T20:34:07.518Z,25.00
2018-09-08T20:37:10.665Z,25.00
2018-09-08T20:38:42.435Z,26.60
2018-09-08T20:40:13.809Z,25.70
2018-09-08T20:41:45.380Z,27.90
2018-09-08T20:43:16.950Z,27.00
2018-09-08T20:44:48.623Z,26.20
2018-09-08T20:46:20.094Z,24.00
2018-09-08T20:47:51.673Z,25.10
2018-09-08T20:49:23.241Z,24.90
2018-09-08T20:52:27.018Z,26.40
2018-09-08T20:53:57.957Z,27.00
2018-09-08T20:55:29.523Z,27.00
2018-09-08T20:57:01.095Z,26.50
2018-09-08T20:58:32.870Z,25.30
2018-09-08T21:00:04.239Z,25.90
2018-09-08T21:01:35.809Z,26.20
2018-09-08T21:03:07.380Z,27.20
2018-09-08T21:04:39.052Z,26.40
2018-09-08T21:06:10.524Z,27.30
2018-09-08T21:07:42.123Z,29.10
2018-09-08T21:09:13.666Z,29.40
2018-09-08T21:10:45.538Z,27.80
2018-09-08T21:12:17.112Z,26.80
2018-09-08T21:13:48.380Z,30.10
2018-09-08T21:15:19.952Z,29.00
2018-09-08T21:16:52.374Z,30.10
2018-09-08T21:18:23.297Z,28.40
2018-09-08T21:19:54.666Z,28.20
2018-09-08T21:21:26.238Z,27.10
2018-09-08T21:22:57.909Z,27.40
2018-09-08T21:24:29.381Z,27.40
2018-09-08T21:27:32.620Z,28.00
2018-09-08T21:29:04.195Z,29.70
2018-09-08T21:30:35.667Z,27.90
2018-09-08T21:32:07.241Z,27.20
2018-09-08T21:35:10.583Z,26.10
2018-09-08T21:36:41.952Z,27.30
2018-09-08T21:38:13.523Z,27.00
2018-09-08T21:39:45.094Z,27.00
2018-09-08T21:41:16.769Z,29.10
2018-09-08T21:42:48.236Z,27.40
2018-09-08T21:44:19.807Z,28.00
2018-09-08T21:45:51.381Z,27.20
2018-09-08T21:47:23.250Z,27.80
2018-09-08T21:50:26.093Z,29.30
2018-09-08T21:51:57.663Z,27.80
2018-09-08T21:53:29.635Z,27.30
2018-09-08T21:55:00.806Z,27.80
2018-09-08T21:56:32.378Z,28.20
2018-09-08T21:58:03.948Z,26.70
2018-09-08T21:59:35.619Z,27.60
2018-09-08T22:01:07.139Z,26.80
2018-09-08T22:02:38.863Z,27.50
2018-09-08T22:04:10.232Z,27.50
2018-09-08T22:05:42.411Z,28.70
2018-09-08T22:07:13.375Z,25.90
2018-09-08T22:08:44.946Z,25.40
2018-09-08T22:10:16.516Z,26.40
2018-09-08T22:11:48.489Z,24.40
2018-09-08T22:13:19.659Z,23.50
2018-09-08T22:14:51.533Z,23.90
2018-09-08T22:16:22.800Z,23.60
2018-09-08T22:17:54.672Z,22.20
2018-09-08T22:19:25.944Z,23.10
2018-09-08T22:20:57.514Z,22.40
2018-09-08T22:22:29.084Z,23.90
2018-09-08T22:24:00.755Z,23.10
2018-09-08T22:25:32.227Z,23.80
2018-09-08T22:27:03.799Z,22.30